Portada
METAR-TAF:

METAR-TAF

Aeroports :

Ouagadougou, Burkina Faso

Aeroport d'Ouagadougou

latitud: 12-21N, longitud: 001-31W, altitud: 316 m

Observació

L'informe es va fer fa 18 hores i 30 minuts, a les 15:00 UTC
Vent 2 kt amb direcció variable
Temperatura 39°C
Humitat 28%
Pressió 1007 hPa
Visibilitat 10 km o més
Núvols disperses a una alçada de 2000 ft

METAR: DFFD 201500Z VRB02KT 9999 SCT020 39/17 Q1007 TEMPO TS SCT020 FEW033CB

Hora: 09:30 (09:30 UTC)

Pronòstic

L'informe es va fer fa 22 hores i 30 minuts, a les 11:00 UTC
Pronòstic vàlid del 20 a les 12 UTC al 21 a les 18 UTC
Vent 8 kt del Oest/Sud-Oest
Visibilitat: 8000 m
Probabilitat 30% :
Temporalment
l' 20 a les 16 UTC al 20 a les 22 UTC
Escasses núvols a una alçada de 2600 ft
Escasses núvols a una alçada de 4000 ft, Cumulonimbus.
tempesta
Temporalment
l' 21 a les 06 UTC al 21 a les 10 UTC
Visibilitat: 4000 m
Pols estès

TAF: DFFD 201100Z 2012/2118 24008KT 8000 NSC PROB30 TEMPO 2016/2022 TS FEW026 FEW040CB TEMPO 2106/2110 4000 DU

Observacions i pronòstics meteorològics de més de 4000 aeroports (METAR i TAF).

Les estacions disponibles són els punts grocs i vermells al mapa.

Posi el ratolí al punt desitjat per veure el nom de l'estació.

Feu clic per veure les observacions i els pronòstics meteorològics.

Per canviar el mapa: feu clic els botons verds amb una creu de color negre per apropar; al botó verd amb un guió per allunyar la imatge; o en les fletxes verdes per a mapes adjacents.


METAR-TAF: